地図

経路データ

SID SEASON NUMBER BASIN SUBBASIN NAME ISO_TIME NATURE LAT LON WMO_WIND WMO_PRES WMO_AGENCY TRACK_TYPE DIST2LAND LANDFALL IFLAG USA_AGENCY USA_ATCF_ID USA_LAT USA_LON USA_RECORD USA_STATUS USA_WIND USA_PRES USA_SSHS USA_R34_NE USA_R34_SE USA_R34_SW USA_R34_NW USA_R50_NE USA_R50_SE USA_R50_SW USA_R50_NW USA_R64_NE USA_R64_SE USA_R64_SW USA_R64_NW USA_POCI USA_ROCI USA_RMW USA_EYE TOKYO_LAT TOKYO_LON TOKYO_GRADE TOKYO_WIND TOKYO_PRES TOKYO_R50_DIR TOKYO_R50_LONG TOKYO_R50_SHORT TOKYO_R30_DIR TOKYO_R30_LONG TOKYO_R30_SHORT TOKYO_LAND CMA_LAT CMA_LON CMA_CAT CMA_WIND CMA_PRES HKO_LAT HKO_LON HKO_CAT HKO_WIND HKO_PRES NEWDELHI_LAT NEWDELHI_LON NEWDELHI_GRADE NEWDELHI_WIND NEWDELHI_PRES NEWDELHI_CI NEWDELHI_DP NEWDELHI_POCI REUNION_LAT REUNION_LON REUNION_TYPE REUNION_WIND REUNION_PRES REUNION_TNUM REUNION_CI REUNION_RMW REUNION_R34_NE REUNION_R34_SE REUNION_R34_SW REUNION_R34_NW REUNION_R50_NE REUNION_R50_SE REUNION_R50_SW REUNION_R50_NW REUNION_R64_NE REUNION_R64_SE REUNION_R64_SW REUNION_R64_NW BOM_LAT BOM_LON BOM_TYPE BOM_WIND BOM_PRES BOM_TNUM BOM_CI BOM_RMW BOM_R34_NE BOM_R34_SE BOM_R34_SW BOM_R34_NW BOM_R50_NE BOM_R50_SE BOM_R50_SW BOM_R50_NW BOM_R64_NE BOM_R64_SE BOM_R64_SW BOM_R64_NW BOM_ROCI BOM_POCI BOM_EYE BOM_POS_METHOD BOM_PRES_METHOD NADI_LAT NADI_LON NADI_CAT NADI_WIND NADI_PRES WELLINGTON_LAT WELLINGTON_LON WELLINGTON_WIND WELLINGTON_PRES DS824_LAT DS824_LON DS824_STAGE DS824_WIND DS824_PRES TD9636_LAT TD9636_LON TD9636_STAGE TD9636_WIND TD9636_PRES TD9635_LAT TD9635_LON TD9635_WIND TD9635_PRES TD9635_ROCI NEUMANN_LAT NEUMANN_LON NEUMANN_CLASS NEUMANN_WIND NEUMANN_PRES MLC_LAT MLC_LON MLC_CLASS MLC_WIND MLC_PRES USA_GUST BOM_GUST BOM_GUST_PER REUNION_GUST REUNION_GUST_PER USA_SEAHGT USA_SEARAD_NE USA_SEARAD_SE USA_SEARAD_SW USA_SEARAD_NW STORM_SPEED STORM_DIR
1870252N13315 1870 18 NA NA NOT_NAMED 1870-09-08 12:00:00 TS 12.6000 -44.7000 main 1179 1164 _____________O -1 12.6000 -44.7000 TS 35 11 297
1870252N13315 1870 18 NA NA NOT_NAMED 1870-09-08 15:00:00 TS 12.8502 -45.1998 main 1173 1158 _____________P -1 12.8502 -45.1998 TS 35 11 297
1870252N13315 1870 18 NA NA NOT_NAMED 1870-09-08 18:00:00 TS 13.1000 -45.7000 main 1162 1147 _____________O -1 13.1000 -45.7000 TS 35 11 297
1870252N13315 1870 18 NA NA NOT_NAMED 1870-09-08 21:00:00 TS 13.3499 -46.2001 main 1147 1139 _____________P -1 13.3499 -46.2001 TS 35 11 297
1870252N13315 1870 18 NA NA NOT_NAMED 1870-09-09 00:00:00 TS 13.6000 -46.7000 main 1141 1130 _____________O -1 13.6000 -46.7000 TS 35 11 297
1870252N13315 1870 18 NA NA NOT_NAMED 1870-09-09 03:00:00 TS 13.8499 -47.2001 main 1130 1127 _____________P -1 13.8499 -47.2001 TS 35 11 297
1870252N13315 1870 18 NA NA NOT_NAMED 1870-09-09 06:00:00 TS 14.1000 -47.7000 main 1132 1126 _____________O -1 14.1000 -47.7000 TS 35 11 297
1870252N13315 1870 18 NA NA NOT_NAMED 1870-09-09 09:00:00 TS 14.3499 -48.2001 main 1126 1126 _____________P -1 14.3499 -48.2001 TS 37 11 297
1870252N13315 1870 18 NA NA NOT_NAMED 1870-09-09 12:00:00 TS 14.6000 -48.7000 main 1134 1129 _____________O -1 14.6000 -48.7000 TS 40 11 297
1870252N13315 1870 18 NA NA NOT_NAMED 1870-09-09 15:00:00 TS 14.8499 -49.2001 main 1134 1134 _____________P -1 14.8499 -49.2001 TS 42 11 297
1870252N13315 1870 18 NA NA NOT_NAMED 1870-09-09 18:00:00 TS 15.1000 -49.7000 main 1141 1137 _____________O -1 15.1000 -49.7000 TS 45 11 297
1870252N13315 1870 18 NA NA NOT_NAMED 1870-09-09 21:00:00 TS 15.3499 -50.2001 main 1139 1139 _____________P -1 15.3499 -50.2001 TS 47 11 297
1870252N13315 1870 18 NA NA NOT_NAMED 1870-09-10 00:00:00 TS 15.6000 -50.7000 main 1151 1148 _____________O -1 15.6000 -50.7000 TS 50 11 297
1870252N13315 1870 18 NA NA NOT_NAMED 1870-09-10 03:00:00 TS 15.8499 -51.2001 main 1156 1156 _____________P -1 15.8499 -51.2001 TS 50 11 297
1870252N13315 1870 18 NA NA NOT_NAMED 1870-09-10 06:00:00 TS 16.1000 -51.7000 main 1173 1139 _____________O -1 16.1000 -51.7000 TS 50 11 297
1870252N13315 1870 18 NA NA NOT_NAMED 1870-09-10 09:00:00 TS 16.3499 -52.2001 main 1139 1113 _____________P -1 16.3499 -52.2001 TS 50 11 298
1870252N13315 1870 18 NA NA NOT_NAMED 1870-09-10 12:00:00 TS 16.6000 -52.7000 main 1113 1084 _____________O -1 16.6000 -52.7000 TS 50 11 298
1870252N13315 1870 18 NA NA NOT_NAMED 1870-09-10 15:00:00 TS 16.8499 -53.2001 main 1084 1064 _____________P -1 16.8499 -53.2001 TS 50 11 298
1870252N13315 1870 18 NA NA NOT_NAMED 1870-09-10 18:00:00 TS 17.1000 -53.7000 main 1064 1041 _____________O -1 17.1000 -53.7000 TS 50 11 298
1870252N13315 1870 18 NA NA NOT_NAMED 1870-09-10 21:00:00 TS 17.3499 -54.2001 main 1041 1027 _____________P -1 17.3499 -54.2001 TS 50 11 298
1870252N13315 1870 18 NA NA NOT_NAMED 1870-09-11 00:00:00 TS 17.6000 -54.7000 main 1028 1011 _____________O -1 17.6000 -54.7000 TS 50 11 298
1870252N13315 1870 18 NA NA NOT_NAMED 1870-09-11 03:00:00 TS 17.8574 -55.2001 main 1019 1003 _____________P -1 17.8574 -55.2001 TS 52 11 298
1870252N13315 1870 18 NA NA NOT_NAMED 1870-09-11 06:00:00 TS 18.1000 -55.7000 main 1005 992 _____________O -1 18.1000 -55.7000 TS 55 11 295
1870252N13315 1870 18 NA NA NOT_NAMED 1870-09-11 09:00:00 TS 18.3074 -56.2002 main 992 938 _____________P -1 18.3074 -56.2002 TS 57 10 293
1870252N13315 1870 18 NA NA NOT_NAMED 1870-09-11 12:00:00 TS 18.5000 -56.7000 main 938 886 _____________O -1 18.5000 -56.7000 TS 60 10 293
1870252N13315 1870 18 NA NA NOT_NAMED 1870-09-11 15:00:00 TS 18.6998 -57.1926 main 886 834 _____________P -1 18.6998 -57.1926 TS 67 10 293
1870252N13315 1870 18 NA NA NOT_NAMED 1870-09-11 18:00:00 TS 18.9000 -57.7000 main 834 783 _____________O -1 18.9000 -57.7000 HU 75 11 292
1870252N13315 1870 18 NA NA NOT_NAMED 1870-09-11 21:00:00 TS 19.1000 -58.2501 main 772 722 _____________P -1 19.1000 -58.2501 HU 80 11 291
1870252N13315 1870 18 NA NA NOT_NAMED 1870-09-12 00:00:00 TS 19.3000 -58.8000 main 722 673 _____________O -1 19.3000 -58.8000 HU 85 11 292
1870252N13315 1870 18 NA NA NOT_NAMED 1870-09-12 03:00:00 TS 19.4999 -59.3151 main 673 626 _____________P -1 19.4999 -59.3151 HU 85 10 293
1870252N13315 1870 18 NA NA NOT_NAMED 1870-09-12 06:00:00 TS 19.7000 -59.8000 main 626 591 _____________O -1 19.7000 -59.8000 HU 85 10 294
1870252N13315 1870 18 NA NA NOT_NAMED 1870-09-12 09:00:00 TS 19.8999 -60.2651 main 581 548 _____________P -1 19.8999 -60.2651 HU 85 9 295
1870252N13315 1870 18 NA NA NOT_NAMED 1870-09-12 12:00:00 TS 20.1000 -60.7000 main 548 517 _____________O -1 20.1000 -60.7000 HU 85 9 297
1870252N13315 1870 18 NA NA NOT_NAMED 1870-09-12 15:00:00 TS 20.2999 -61.1076 main 517 489 _____________P -1 20.2999 -61.1076 HU 85 9 298
1870252N13315 1870 18 NA NA NOT_NAMED 1870-09-12 18:00:00 TS 20.5000 -61.5000 main 489 465 _____________O -1 20.5000 -61.5000 HU 85 9 298
1870252N13315 1870 18 NA NA NOT_NAMED 1870-09-12 21:00:00 TS 20.7000 -61.9076 main 465 444 _____________P -1 20.7000 -61.9076 HU 85 9 298
1870252N13315 1870 18 NA NA NOT_NAMED 1870-09-13 00:00:00 TS 20.9000 -62.3000 main 444 427 _____________O -1 20.9000 -62.3000 HU 85 8 299
1870252N13315 1870 18 NA NA NOT_NAMED 1870-09-13 03:00:00 TS 21.0999 -62.6651 main 428 421 _____________P -1 21.0999 -62.6651 HU 85 8 302
1870252N13315 1870 18 NA NA NOT_NAMED 1870-09-13 06:00:00 TS 21.3000 -63.0000 main 423 416 _____________O -1 21.3000 -63.0000 HU 85 7 303
1870252N13315 1870 18 NA NA NOT_NAMED 1870-09-13 09:00:00 TS 21.4999 -63.3151 main 421 416 _____________P -1 21.4999 -63.3151 HU 85 7 306
1870252N13315 1870 18 NA NA NOT_NAMED 1870-09-13 12:00:00 TS 21.7000 -63.6000 main 424 419 _____________O -1 21.7000 -63.6000 HU 85 6 308
1870252N13315 1870 18 NA NA NOT_NAMED 1870-09-13 15:00:00 TS 21.8698 -63.8280 main 434 429 _____________P -1 21.8698 -63.8280 HU 85 6 311
1870252N13315 1870 18 NA NA NOT_NAMED 1870-09-13 18:00:00 TS 22.1000 -64.1000 main 442 442 _____________O -1 22.1000 -64.1000 HU 85 9 313
1870252N13315 1870 18 NA NA NOT_NAMED 1870-09-13 21:00:00 TS 22.4701 -64.5198 main 472 470 _____________P -1 22.4701 -64.5198 HU 85 12 314
1870252N13315 1870 18 NA NA NOT_NAMED 1870-09-14 00:00:00 TS 22.9000 -65.0000 main 507 505 _____________O -1 22.9000 -65.0000 HU 85 12 314
1870252N13315 1870 18 NA NA NOT_NAMED 1870-09-14 03:00:00 TS 23.2999 -65.4503 main 548 548 _____________P -1 23.2999 -65.4503 HU 85 12 314
1870252N13315 1870 18 NA NA NOT_NAMED 1870-09-14 06:00:00 TS 23.7000 -65.9000 main 592 592 _____________O -1 23.7000 -65.9000 HU 85 12 314
1870252N13315 1870 18 NA NA NOT_NAMED 1870-09-14 09:00:00 TS 24.1074 -66.3502 main 614 614 _____________P -1 24.1074 -66.3502 HU 85 11 314
1870252N13315 1870 18 NA NA NOT_NAMED 1870-09-14 12:00:00 TS 24.5000 -66.8000 main 635 631 _____________O -1 24.5000 -66.8000 HU 85 11 312
1870252N13315 1870 18 NA NA NOT_NAMED 1870-09-14 15:00:00 TS 24.8500 -67.2653 main 644 644 _____________P -1 24.8500 -67.2653 HU 85 11 311
1870252N13315 1870 18 NA NA NOT_NAMED 1870-09-14 18:00:00 TS 25.2000 -67.7000 main 669 669 _____________O -1 25.2000 -67.7000 HU 85 10 316
1870252N13315 1870 18 NA NA NOT_NAMED 1870-09-14 21:00:00 TS 25.5998 -68.0727 main 697 697 _____________P -1 25.5998 -68.0727 HU 85 10 322
1870252N13315 1870 18 NA NA NOT_NAMED 1870-09-15 00:00:00 TS 26.0000 -68.4000 main 712 712 _____________O -1 26.0000 -68.4000 HU 85 9 323
1870252N13315 1870 18 NA NA NOT_NAMED 1870-09-15 03:00:00 TS 26.3498 -68.7004 main 718 718 _____________P -1 26.3498 -68.7004 HU 82 9 322
1870252N13315 1870 18 NA NA NOT_NAMED 1870-09-15 06:00:00 TS 26.7000 -69.0000 main 736 736 _____________O -1 26.7000 -69.0000 HU 80 10 322
1870252N13315 1870 18 NA NA NOT_NAMED 1870-09-15 09:00:00 TS 27.1000 -69.3500 main 758 753 _____________P -1 27.1000 -69.3500 HU 80 10 322
1870252N13315 1870 18 NA NA NOT_NAMED 1870-09-15 12:00:00 TS 27.5000 -69.7000 main 779 779 _____________O -1 27.5000 -69.7000 HU 80 9 321
1870252N13315 1870 18 NA NA NOT_NAMED 1870-09-15 15:00:00 TS 27.8198 -70.0008 main 797 797 _____________P -1 27.8198 -70.0008 HU 80 9 323
1870252N13315 1870 18 NA NA NOT_NAMED 1870-09-15 18:00:00 TS 28.2000 -70.3000 main 828 828 _____________O -1 28.2000 -70.3000 HU 80 11 329
1870252N13315 1870 18 NA NA NOT_NAMED 1870-09-15 21:00:00 TS 28.7700 -70.6424 main 840 785 _____________P -1 28.7700 -70.6424 HU 80 14 333
1870252N13315 1870 18 NA NA NOT_NAMED 1870-09-16 00:00:00 TS 29.4000 -71.0000 main 785 724 _____________O -1 29.4000 -71.0000 HU 80 13 332
1870252N13315 1870 18 NA NA NOT_NAMED 1870-09-16 03:00:00 TS 29.9575 -71.3652 main 709 648 _____________P -1 29.9575 -71.3652 HU 80 13 331
1870252N13315 1870 18 NA NA NOT_NAMED 1870-09-16 06:00:00 TS 30.5000 -71.7000 main 648 588 _____________O -1 30.5000 -71.7000 HU 80 12 333
1870252N13315 1870 18 NA NA NOT_NAMED 1870-09-16 09:00:00 TS 31.0500 -72.0024 main 588 528 _____________P -1 31.0500 -72.0024 HU 80 12 339
1870252N13315 1870 18 NA NA NOT_NAMED 1870-09-16 12:00:00 TS 31.6000 -72.2000 main 528 491 _____________O -1 31.6000 -72.2000 HU 80 11 350
1870252N13315 1870 18 NA NA NOT_NAMED 1870-09-16 15:00:00 TS 32.1724 -72.2456 main 484 450 _____________P -1 32.1724 -72.2456 HU 80 11 0
1870252N13315 1870 18 NA NA NOT_NAMED 1870-09-16 18:00:00 TS 32.7000 -72.2000 main 450 424 _____________O -1 32.7000 -72.2000 HU 80 10 4
1870252N13315 1870 18 NA NA NOT_NAMED 1870-09-16 21:00:00 TS 33.1225 -72.1723 main 424 402 _____________P -1 33.1225 -72.1723 HU 80 8 6
1870252N13315 1870 18 NA NA NOT_NAMED 1870-09-17 00:00:00 TS 33.5000 -72.1000 main 402 382 _____________O -1 33.5000 -72.1000 HU 80 8 12
1870252N13315 1870 18 NA NA NOT_NAMED 1870-09-17 03:00:00 TS 33.9000 -71.9651 main 382 372 _____________P -1 33.9000 -71.9651 HU 80 8 17
1870252N13315 1870 18 NA NA NOT_NAMED 1870-09-17 06:00:00 TS 34.3000 -71.8000 main 375 365 _____________O -1 34.3000 -71.8000 HU 80 9 18
1870252N13315 1870 18 NA NA NOT_NAMED 1870-09-17 09:00:00 TS 34.7075 -71.6425 main 373 363 _____________P -1 34.7075 -71.6425 HU 80 8 17
1870252N13315 1870 18 NA NA NOT_NAMED 1870-09-17 12:00:00 TS 35.1000 -71.5000 main 369 365 _____________O -1 35.1000 -71.5000 HU 80 982 8 15
1870252N13315 1870 18 NA NA NOT_NAMED 1870-09-17 15:00:00 TS 35.4499 -71.3996 main 372 370 _____________P -1 35.4499 -71.3996 HU 82 7 13
1870252N13315 1870 18 NA NA NOT_NAMED 1870-09-17 18:00:00 TS 35.8000 -71.3000 main 377 377 _____________O -1 35.8000 -71.3000 HU 85 8 14
1870252N13315 1870 18 NA NA NOT_NAMED 1870-09-17 21:00:00 TS 36.1774 -71.1721 main 388 388 _____________P -1 36.1774 -71.1721 HU 87 8 17
1870252N13315 1870 18 NA NA NOT_NAMED 1870-09-18 00:00:00 TS 36.6000 -71.0000 main 407 400 _____________O -1 36.6000 -71.0000 HU 90 10 19
1870252N13315 1870 18 NA NA NOT_NAMED 1870-09-18 03:00:00 TS 37.0849 -70.7871 main 400 390 _____________P -1 37.0849 -70.7871 HU 92 11 22
1870252N13315 1870 18 NA NA NOT_NAMED 1870-09-18 06:00:00 TS 37.6000 -70.5000 main 391 364 _____________O -1 37.6000 -70.5000 HU 95 12 27
1870252N13315 1870 18 NA NA NOT_NAMED 1870-09-18 09:00:00 TS 38.1076 -70.1225 main 368 333 _____________P -1 38.1076 -70.1225 HU 95 12 32
1870252N13315 1870 18 NA NA NOT_NAMED 1870-09-18 12:00:00 TS 38.6000 -69.7000 main 333 299 _____________O -1 38.6000 -69.7000 HU 95 11 33
1870252N13315 1870 18 NA NA NOT_NAMED 1870-09-18 15:00:00 TS 39.0191 -69.3571 main 299 261 _____________P -1 39.0191 -69.3571 HU 95 11 35
1870252N13315 1870 18 NA NA NOT_NAMED 1870-09-18 18:00:00 TS 39.5000 -68.9000 main 261 222 _____________O -1 39.5000 -68.9000 HU 95 965 14 34
1870252N13315 1870 18 NA NA NOT_NAMED 1870-09-18 21:00:00 TS 40.1643 -68.3498 main 219 213 _____________P -1 40.1643 -68.3498 HU 95 963 19 41
1870252N13315 1870 18 NA NA NOT_NAMED 1870-09-19 00:00:00 TS 40.9000 -67.3000 main 241 211 _____________O -1 40.9000 -67.3000 HU 95 962 26 55
1870252N13315 1870 18 NA NA NOT_NAMED 1870-09-19 03:00:00 TS 41.6486 -65.5676 main 211 182 _____________P -1 41.6486 -65.5676 HU 87 34 68
1870252N13315 1870 18 NA NA NOT_NAMED 1870-09-19 06:00:00 TS 42.2000 -63.1000 main 224 224 _____________O -1 42.2000 -63.1000 HU 80 42 83
1870252N13315 1870 18 NA NA NOT_NAMED 1870-09-19 09:00:00 TS 42.1853 -59.9831 main 344 344 _____________P -1 42.1853 -59.9831 HU 75 47 90
1870252N13315 1870 18 NA NA NOT_NAMED 1870-09-19 12:00:00 TS 42.2000 -56.7000 main 479 434 _____________O -1 42.2000 -56.7000 HU 70 46 83
1870252N13315 1870 18 NA NA NOT_NAMED 1870-09-19 15:00:00 TS 42.7316 -53.7377 main 433 354 _____________P -1 42.7316 -53.7377 HU 70 45 69
1870252N13315 1870 18 NA NA NOT_NAMED 1870-09-19 18:00:00 TS 43.8000 -51.0000 main 355 349 _____________O -1 43.8000 -51.0000 HU 70 969 46 56
1870252N13315 1870 18 NA NA NOT_NAMED 1870-09-19 21:00:00 TS 45.3474 -48.4399 main 390 390 _____________P -1 45.3474 -48.4399 HU 70 49 45
1870252N13315 1870 18 NA NA NOT_NAMED 1870-09-20 00:00:00 TS 47.3000 -46.0000 main 494 494 _____________O -1 47.3000 -46.0000 HU 70 53 39
1870252N13315 1870 18 NA NA NOT_NAMED 1870-09-20 03:00:00 TS 49.4660 -43.5545 main 688 688 _____________P -1 49.4660 -43.5545 HU 70 53 38
1870252N13315 1870 18 NA NA NOT_NAMED 1870-09-20 06:00:00 ET 51.5000 -41.0000 main 913 870 _____________O -1 51.5000 -41.0000 EX 70 47 46
1870252N13315 1870 18 NA NA NOT_NAMED 1870-09-20 09:00:00 ET 52.7370 -38.1798 main 872 823 _____________P -1 52.7370 -38.1798 EX 70 42 54
1870252N13315 1870 18 NA NA NOT_NAMED 1870-09-20 12:00:00 ET 54.0000 -35.3000 main 821 779 _____________O -1 54.0000 -35.3000 EX 70 47 47
1870252N13315 1870 18 NA NA NOT_NAMED 1870-09-20 15:00:00 ET 55.9440 -32.3094 main 783 709 _____________P -1 55.9440 -32.3094 EX 65 55 39
1870252N13315 1870 18 NA NA NOT_NAMED 1870-09-20 18:00:00 ET 58.3000 -29.0000 main 694 _____________O -1 58.3000 -29.0000 EX 60 59 36

IBTrACS Databaseについて

本データベースは、米国NOAAが公開する1842年以降の世界の熱帯低気圧のベストトラックデータアーカイブInternational Best Track Archive for Climate Stewardship (IBTrACS)を、ウェブで閲覧しやすい形式に変換したものです。

最終更新日:2021-11-26